sensor_id;sensor_type;location;lat;lon;timestamp;pressure;altitude;pressure_sealevel;temperature;humidity
50105;BME280;47690;39.202;-77.198;2023-01-29T00:02:21;101043.38;;;35.28;7.51
50105;BME280;47690;39.202;-77.198;2023-01-29T00:04:50;101038.53;;;35.07;7.43
50105;BME280;47690;39.202;-77.198;2023-01-29T00:07:31;101037.97;;;34.95;7.62
50105;BME280;47690;39.202;-77.198;2023-01-29T00:09:59;101045.16;;;34.78;7.65
50105;BME280;47690;39.202;-77.198;2023-01-29T00:12:29;101030.19;;;34.58;7.86
50105;BME280;47690;39.202;-77.198;2023-01-29T00:14:59;101050.84;;;34.40;7.77
50105;BME280;47690;39.202;-77.198;2023-01-29T00:17:29;101050.31;;;34.28;7.80
50105;BME280;47690;39.202;-77.198;2023-01-29T00:19:59;101055.59;;;34.11;7.80
50105;BME280;47690;39.202;-77.198;2023-01-29T00:22:30;101050.19;;;34.03;7.97
50105;BME280;47690;39.202;-77.198;2023-01-29T00:25:00;101051.63;;;33.97;7.79
50105;BME280;47690;39.202;-77.198;2023-01-29T00:27:30;101062.47;;;33.96;7.91
50105;BME280;47690;39.202;-77.198;2023-01-29T00:30:00;101062.47;;;33.96;8.08
50105;BME280;47690;39.202;-77.198;2023-01-29T00:32:42;101064.31;;;33.95;8.01
50105;BME280;47690;39.202;-77.198;2023-01-29T00:35:11;101069.09;;;33.83;8.26
50105;BME280;47690;39.202;-77.198;2023-01-29T00:37:40;101071.84;;;33.73;8.16
50105;BME280;47690;39.202;-77.198;2023-01-29T00:40:11;101074.94;;;33.60;7.84
50105;BME280;47690;39.202;-77.198;2023-01-29T00:42:40;101069.13;;;33.47;8.38
50105;BME280;47690;39.202;-77.198;2023-01-29T00:45:30;101075.16;;;33.31;7.93
50105;BME280;47690;39.202;-77.198;2023-01-29T00:47:59;101081.03;;;33.16;8.21
50105;BME280;47690;39.202;-77.198;2023-01-29T00:50:30;101094.25;;;32.90;8.42
50105;BME280;47690;39.202;-77.198;2023-01-29T00:53:01;101098.00;;;32.69;8.89
50105;BME280;47690;39.202;-77.198;2023-01-29T00:55:31;101102.84;;;32.83;8.47
50105;BME280;47690;39.202;-77.198;2023-01-29T00:58:02;101096.13;;;32.79;8.34
50105;BME280;47690;39.202;-77.198;2023-01-29T01:00:32;101099.88;;;32.59;8.45
50105;BME280;47690;39.202;-77.198;2023-01-29T01:03:01;101104.13;;;32.51;8.50
50105;BME280;47690;39.202;-77.198;2023-01-29T01:05:38;101108.47;;;32.52;8.33
50105;BME280;47690;39.202;-77.198;2023-01-29T01:08:11;101104.56;;;32.47;8.75
50105;BME280;47690;39.202;-77.198;2023-01-29T01:11:05;101108.19;;;32.55;8.11
50105;BME280;47690;39.202;-77.198;2023-01-29T01:13:35;101111.91;;;32.45;8.65
50105;BME280;47690;39.202;-77.198;2023-01-29T01:16:10;101114.56;;;32.45;8.56
50105;BME280;47690;39.202;-77.198;2023-01-29T01:18:42;101119.47;;;32.29;8.86
50105;BME280;47690;39.202;-77.198;2023-01-29T01:21:11;101124.56;;;32.23;8.28
50105;BME280;47690;39.202;-77.198;2023-01-29T01:23:42;101117.41;;;32.13;8.26
50105;BME280;47690;39.202;-77.198;2023-01-29T01:26:11;101121.63;;;32.06;8.71
50105;BME280;47690;39.202;-77.198;2023-01-29T01:28:43;101123.34;;;31.97;8.54
50105;BME280;47690;39.202;-77.198;2023-01-29T01:31:13;101123.50;;;31.86;8.89
50105;BME280;47690;39.202;-77.198;2023-01-29T01:33:43;101132.03;;;31.80;9.08
50105;BME280;47690;39.202;-77.198;2023-01-29T01:36:12;101133.56;;;31.72;8.44
50105;BME280;47690;39.202;-77.198;2023-01-29T01:38:41;101137.38;;;31.60;8.46
50105;BME280;47690;39.202;-77.198;2023-01-29T01:41:17;101130.06;;;31.62;8.93
50105;BME280;47690;39.202;-77.198;2023-01-29T01:43:57;101138.06;;;31.72;8.77
50105;BME280;47690;39.202;-77.198;2023-01-29T01:46:31;101135.97;;;31.66;8.58
50105;BME280;47690;39.202;-77.198;2023-01-29T01:49:14;101129.34;;;31.70;8.56
50105;BME280;47690;39.202;-77.198;2023-01-29T01:51:47;101119.44;;;31.72;8.93
50105;BME280;47690;39.202;-77.198;2023-01-29T01:54:23;101120.69;;;31.68;8.78
50105;BME280;47690;39.202;-77.198;2023-01-29T01:57:03;101120.81;;;31.66;8.89
50105;BME280;47690;39.202;-77.198;2023-01-29T01:59:52;101120.81;;;31.76;9.06
50105;BME280;47690;39.202;-77.198;2023-01-29T02:02:24;101121.50;;;31.39;8.76
50105;BME280;47690;39.202;-77.198;2023-01-29T02:05:14;101120.69;;;31.28;8.94
50105;BME280;47690;39.202;-77.198;2023-01-29T02:08:02;101119.56;;;31.60;8.87
50105;BME280;47690;39.202;-77.198;2023-01-29T02:10:50;101117.88;;;31.69;8.27
50105;BME280;47690;39.202;-77.198;2023-01-29T02:13:19;101118.00;;;31.68;8.75
50105;BME280;47690;39.202;-77.198;2023-01-29T02:15:50;101119.13;;;31.65;8.86
50105;BME280;47690;39.202;-77.198;2023-01-29T02:18:20;101114.09;;;31.62;8.51
50105;BME280;47690;39.202;-77.198;2023-01-29T02:29:51;101109.78;;;30.90;9.10
50105;BME280;47690;39.202;-77.198;2023-01-29T02:38:20;101108.22;;;30.88;9.14
50105;BME280;47690;39.202;-77.198;2023-01-29T02:41:05;101110.72;;;31.70;8.45
50105;BME280;47690;39.202;-77.198;2023-01-29T02:43:49;101105.50;;;31.09;8.68
50105;BME280;47690;39.202;-77.198;2023-01-29T02:49:08;101107.72;;;31.04;8.76
50105;BME280;47690;39.202;-77.198;2023-01-29T02:54:51;101097.91;;;30.63;9.26
50105;BME280;47690;39.202;-77.198;2023-01-29T02:57:31;101102.94;;;30.57;9.27
50105;BME280;47690;39.202;-77.198;2023-01-29T03:00:04;101095.75;;;30.47;8.87
50105;BME280;47690;39.202;-77.198;2023-01-29T03:02:41;101091.38;;;30.36;8.91
50105;BME280;47690;39.202;-77.198;2023-01-29T03:05:15;101096.25;;;30.31;9.34
50105;BME280;47690;39.202;-77.198;2023-01-29T03:07:55;101088.97;;;30.33;9.30
50105;BME280;47690;39.202;-77.198;2023-01-29T03:10:39;101100.16;;;30.37;9.20
50105;BME280;47690;39.202;-77.198;2023-01-29T03:13:32;101093.34;;;30.34;9.29
50105;BME280;47690;39.202;-77.198;2023-01-29T03:16:13;101096.34;;;30.20;9.08
50105;BME280;47690;39.202;-77.198;2023-01-29T03:18:55;101094.81;;;30.06;9.73
50105;BME280;47690;39.202;-77.198;2023-01-29T03:21:37;101089.91;;;30.01;9.38
50105;BME280;47690;39.202;-77.198;2023-01-29T03:24:51;101089.19;;;30.20;9.25
50105;BME280;47690;39.202;-77.198;2023-01-29T03:27:48;101086.97;;;30.04;9.00
50105;BME280;47690;39.202;-77.198;2023-01-29T03:30:47;101087.22;;;30.12;9.02
50105;BME280;47690;39.202;-77.198;2023-01-29T03:37:25;101087.88;;;29.93;9.27
50105;BME280;47690;39.202;-77.198;2023-01-29T03:39:36;101080.13;;;29.80;9.22
50105;BME280;47690;39.202;-77.198;2023-01-29T03:45:30;101089.00;;;29.91;9.40
50105;BME280;47690;39.202;-77.198;2023-01-29T03:53:30;101087.69;;;29.64;9.26
50105;BME280;47690;39.202;-77.198;2023-01-29T04:01:52;101082.06;;;29.57;9.31
50105;BME280;47690;39.202;-77.198;2023-01-29T04:04:34;101094.16;;;29.50;9.73
50105;BME280;47690;39.202;-77.198;2023-01-29T04:07:13;101082.56;;;29.39;9.85
50105;BME280;47690;39.202;-77.198;2023-01-29T04:12:27;101081.25;;;29.34;9.54
50105;BME280;47690;39.202;-77.198;2023-01-29T04:15:00;101076.72;;;29.24;9.84
50105;BME280;47690;39.202;-77.198;2023-01-29T04:17:34;101079.28;;;29.14;9.49
50105;BME280;47690;39.202;-77.198;2023-01-29T04:20:16;101070.59;;;29.12;9.73
50105;BME280;47690;39.202;-77.198;2023-01-29T04:22:48;101067.47;;;29.07;9.64
50105;BME280;47690;39.202;-77.198;2023-01-29T04:25:22;101068.81;;;29.01;9.69
50105;BME280;47690;39.202;-77.198;2023-01-29T04:28:04;101066.28;;;29.00;9.61
50105;BME280;47690;39.202;-77.198;2023-01-29T04:30:45;101068.81;;;29.01;9.54
50105;BME280;47690;39.202;-77.198;2023-01-29T04:33:38;101068.66;;;29.14;9.84
50105;BME280;47690;39.202;-77.198;2023-01-29T04:42:04;101059.78;;;29.48;9.61
50105;BME280;47690;39.202;-77.198;2023-01-29T04:44:53;101045.22;;;29.31;9.57
50105;BME280;47690;39.202;-77.198;2023-01-29T04:47:49;101044.75;;;29.26;9.97
50105;BME280;47690;39.202;-77.198;2023-01-29T04:50:36;101041.66;;;29.09;9.52
50105;BME280;47690;39.202;-77.198;2023-01-29T04:53:27;101038.91;;;28.99;9.54
50105;BME280;47690;39.202;-77.198;2023-01-29T04:56:13;101036.06;;;28.91;9.87
50105;BME280;47690;39.202;-77.198;2023-01-29T04:58:50;101028.34;;;28.76;9.63
50105;BME280;47690;39.202;-77.198;2023-01-29T05:01:29;101033.63;;;28.76;9.86
50105;BME280;47690;39.202;-77.198;2023-01-29T05:04:04;101032.28;;;28.82;9.45
50105;BME280;47690;39.202;-77.198;2023-01-29T05:06:36;101027.97;;;28.93;9.44
50105;BME280;47690;39.202;-77.198;2023-01-29T05:09:08;101018.19;;;28.93;9.68
50105;BME280;47690;39.202;-77.198;2023-01-29T05:11:38;101020.16;;;28.91;9.45
50105;BME280;47690;39.202;-77.198;2023-01-29T05:14:10;101018.34;;;28.92;9.56
50105;BME280;47690;39.202;-77.198;2023-01-29T05:16:48;101016.78;;;28.89;9.88
50105;BME280;47690;39.202;-77.198;2023-01-29T05:19:19;101011.72;;;28.86;9.84
50105;BME280;47690;39.202;-77.198;2023-01-29T05:21:48;101005.44;;;28.75;9.89
50105;BME280;47690;39.202;-77.198;2023-01-29T05:24:23;101005.13;;;28.69;9.80
50105;BME280;47690;39.202;-77.198;2023-01-29T05:26:54;101001.22;;;28.73;9.33
50105;BME280;47690;39.202;-77.198;2023-01-29T05:29:45;100998.97;;;28.68;9.40
50105;BME280;47690;39.202;-77.198;2023-01-29T05:32:15;100997.16;;;28.69;9.77
50105;BME280;47690;39.202;-77.198;2023-01-29T05:34:45;100983.66;;;28.72;9.23
50105;BME280;47690;39.202;-77.198;2023-01-29T05:37:14;100991.13;;;28.78;9.32
50105;BME280;47690;39.202;-77.198;2023-01-29T05:39:44;100981.72;;;28.85;9.74
50105;BME280;47690;39.202;-77.198;2023-01-29T05:42:14;100983.41;;;28.86;9.33
50105;BME280;47690;39.202;-77.198;2023-01-29T05:44:43;100983.75;;;28.82;9.63
50105;BME280;47690;39.202;-77.198;2023-01-29T05:47:17;100982.94;;;28.70;9.94
50105;BME280;47690;39.202;-77.198;2023-01-29T05:49:49;100979.31;;;28.71;9.58
50105;BME280;47690;39.202;-77.198;2023-01-29T05:52:18;100983.16;;;28.67;9.64
50105;BME280;47690;39.202;-77.198;2023-01-29T05:54:48;100972.84;;;28.63;9.38
50105;BME280;47690;39.202;-77.198;2023-01-29T05:57:19;100977.31;;;28.52;9.68
50105;BME280;47690;39.202;-77.198;2023-01-29T05:59:49;100964.06;;;28.40;9.44
50105;BME280;47690;39.202;-77.198;2023-01-29T06:02:18;100971.69;;;28.33;9.82
50105;BME280;47690;39.202;-77.198;2023-01-29T06:04:50;100963.03;;;28.31;9.83
50105;BME280;47690;39.202;-77.198;2023-01-29T06:07:21;100960.97;;;28.24;9.93
50105;BME280;47690;39.202;-77.198;2023-01-29T06:09:50;100957.59;;;28.21;9.80
50105;BME280;47690;39.202;-77.198;2023-01-29T06:12:19;100954.53;;;28.15;9.69
50105;BME280;47690;39.202;-77.198;2023-01-29T06:14:49;100950.09;;;28.15;9.63
50105;BME280;47690;39.202;-77.198;2023-01-29T06:17:18;100955.16;;;28.18;10.27
50105;BME280;47690;39.202;-77.198;2023-01-29T06:19:47;100937.69;;;28.16;9.76
50105;BME280;47690;39.202;-77.198;2023-01-29T06:22:16;100940.84;;;28.09;9.81
50105;BME280;47690;39.202;-77.198;2023-01-29T06:24:45;100938.06;;;28.11;10.31
50105;BME280;47690;39.202;-77.198;2023-01-29T06:27:17;100930.75;;;28.26;9.98
50105;BME280;47690;39.202;-77.198;2023-01-29T06:29:47;100924.97;;;28.21;9.77
50105;BME280;47690;39.202;-77.198;2023-01-29T06:32:18;100936.41;;;28.21;10.05
50105;BME280;47690;39.202;-77.198;2023-01-29T06:34:48;100924.09;;;28.32;10.03
50105;BME280;47690;39.202;-77.198;2023-01-29T06:37:18;100925.41;;;28.38;9.55
50105;BME280;47690;39.202;-77.198;2023-01-29T06:39:48;100925.09;;;28.31;10.11
50105;BME280;47690;39.202;-77.198;2023-01-29T06:42:18;100927.94;;;28.39;9.88
50105;BME280;47690;39.202;-77.198;2023-01-29T06:44:48;100927.94;;;28.39;9.54
50105;BME280;47690;39.202;-77.198;2023-01-29T06:47:18;100934.22;;;28.38;10.06
50105;BME280;47690;39.202;-77.198;2023-01-29T06:49:48;100930.25;;;28.21;9.68
50105;BME280;47690;39.202;-77.198;2023-01-29T06:52:18;100928.47;;;28.21;10.21
50105;BME280;47690;39.202;-77.198;2023-01-29T06:54:48;100922.66;;;28.16;9.70
50105;BME280;47690;39.202;-77.198;2023-01-29T06:57:18;100926.63;;;27.99;10.16
50105;BME280;47690;39.202;-77.198;2023-01-29T06:59:47;100917.97;;;27.86;10.00
50105;BME280;47690;39.202;-77.198;2023-01-29T07:02:16;100922.19;;;28.00;9.64
50105;BME280;47690;39.202;-77.198;2023-01-29T07:04:47;100924.59;;;28.03;9.90
50105;BME280;47690;39.202;-77.198;2023-01-29T07:07:18;100931.78;;;28.12;10.02
50105;BME280;47690;39.202;-77.198;2023-01-29T07:09:47;100934.72;;;28.20;9.54
50105;BME280;47690;39.202;-77.198;2023-01-29T07:12:17;100938.06;;;28.11;9.57
50105;BME280;47690;39.202;-77.198;2023-01-29T07:14:48;100942.41;;;28.01;9.64
50105;BME280;47690;39.202;-77.198;2023-01-29T07:17:18;100941.31;;;28.03;9.70
50105;BME280;47690;39.202;-77.198;2023-01-29T07:19:48;100948.06;;;28.07;9.65
50105;BME280;47690;39.202;-77.198;2023-01-29T07:22:18;100955.41;;;28.04;10.24
50105;BME280;47690;39.202;-77.198;2023-01-29T07:24:48;100950.84;;;28.06;9.56
50105;BME280;47690;39.202;-77.198;2023-01-29T07:27:18;100951.78;;;28.05;10.10
50105;BME280;47690;39.202;-77.198;2023-01-29T07:29:48;100953.94;;;28.11;10.12
50105;BME280;47690;39.202;-77.198;2023-01-29T07:32:18;100949.13;;;28.16;9.94
50105;BME280;47690;39.202;-77.198;2023-01-29T07:34:47;100951.44;;;28.21;9.67
50105;BME280;47690;39.202;-77.198;2023-01-29T07:37:16;100949.25;;;28.15;9.76
50105;BME280;47690;39.202;-77.198;2023-01-29T07:39:47;100940.84;;;28.09;9.70
50105;BME280;47690;39.202;-77.198;2023-01-29T07:42:16;100939.03;;;28.10;9.74
50105;BME280;47690;39.202;-77.198;2023-01-29T07:44:46;100934.22;;;28.15;10.13
50105;BME280;47690;39.202;-77.198;2023-01-29T07:47:15;100934.47;;;28.01;10.07
50105;BME280;47690;39.202;-77.198;2023-01-29T07:49:44;100930.50;;;27.95;10.26
50105;BME280;47690;39.202;-77.198;2023-01-29T07:52:14;100922.91;;;28.02;9.93
50105;BME280;47690;39.202;-77.198;2023-01-29T07:54:43;100926.75;;;27.98;10.29
50105;BME280;47690;39.202;-77.198;2023-01-29T07:57:13;100932.53;;;28.03;9.57
50105;BME280;47690;39.202;-77.198;2023-01-29T07:59:42;100939.84;;;28.45;9.55
50105;BME280;47690;39.202;-77.198;2023-01-29T08:02:12;100931.56;;;28.04;9.83
50105;BME280;47690;39.202;-77.198;2023-01-29T08:04:42;100927.13;;;28.04;10.21
50105;BME280;47690;39.202;-77.198;2023-01-29T08:07:11;100920.78;;;28.62;9.75
50105;BME280;47690;39.202;-77.198;2023-01-29T08:09:42;100922.56;;;27.95;9.86
50105;BME280;47690;39.202;-77.198;2023-01-29T08:12:11;100924.47;;;27.93;10.16
50105;BME280;47690;39.202;-77.198;2023-01-29T08:14:41;100912.94;;;27.83;10.22
50105;BME280;47690;39.202;-77.198;2023-01-29T08:17:11;100909.72;;;27.43;10.17
50105;BME280;47690;39.202;-77.198;2023-01-29T08:19:40;100915.59;;;27.35;10.29
50105;BME280;47690;39.202;-77.198;2023-01-29T08:22:10;100917.63;;;27.32;10.27
50105;BME280;47690;39.202;-77.198;2023-01-29T08:24:39;100922.19;;;27.30;10.48
50105;BME280;47690;39.202;-77.198;2023-01-29T08:27:28;100910.31;;;27.35;10.42
50105;BME280;47690;39.202;-77.198;2023-01-29T08:29:59;100904.44;;;27.43;10.47
50105;BME280;47690;39.202;-77.198;2023-01-29T08:32:28;100907.34;;;27.51;9.90
50105;BME280;47690;39.202;-77.198;2023-01-29T08:34:59;100897.13;;;27.47;10.40
50105;BME280;47690;39.202;-77.198;2023-01-29T08:37:30;100895.00;;;27.63;10.28
50105;BME280;47690;39.202;-77.198;2023-01-29T08:39:59;100899.81;;;27.70;10.19
50105;BME280;47690;39.202;-77.198;2023-01-29T08:42:29;100897.16;;;27.58;10.35
50105;BME280;47690;39.202;-77.198;2023-01-29T08:44:59;100896.25;;;27.46;10.13
50105;BME280;47690;39.202;-77.198;2023-01-29T08:47:30;100899.50;;;27.50;9.94
50105;BME280;47690;39.202;-77.198;2023-01-29T08:50:00;100902.59;;;27.79;10.20
50105;BME280;47690;39.202;-77.198;2023-01-29T08:52:30;100908.22;;;27.98;9.60
50105;BME280;47690;39.202;-77.198;2023-01-29T08:54:59;100907.03;;;28.02;9.97
50105;BME280;47690;39.202;-77.198;2023-01-29T08:57:29;100911.22;;;27.70;10.34
50105;BME280;47690;39.202;-77.198;2023-01-29T08:59:59;100913.03;;;27.70;9.85
50105;BME280;47690;39.202;-77.198;2023-01-29T09:02:28;100913.88;;;27.70;9.82
50105;BME280;47690;39.202;-77.198;2023-01-29T09:04:59;100902.81;;;27.65;9.88
50105;BME280;47690;39.202;-77.198;2023-01-29T09:07:28;100911.22;;;27.70;9.91
50105;BME280;47690;39.202;-77.198;2023-01-29T09:09:59;100912.06;;;27.71;10.27
50105;BME280;47690;39.202;-77.198;2023-01-29T09:12:30;100925.06;;;27.62;10.43
50105;BME280;47690;39.202;-77.198;2023-01-29T09:15:03;100927.72;;;27.62;10.31
50105;BME280;47690;39.202;-77.198;2023-01-29T09:17:33;100922.13;;;27.54;10.00
50105;BME280;47690;39.202;-77.198;2023-01-29T09:20:04;100917.78;;;27.53;9.95
50105;BME280;47690;39.202;-77.198;2023-01-29T09:22:36;100910.38;;;28.49;9.54
50105;BME280;47690;39.202;-77.198;2023-01-29T09:25:06;100907.66;;;28.61;9.86
50105;BME280;47690;39.202;-77.198;2023-01-29T09:27:36;100910.94;;;28.97;9.31
50105;BME280;47690;39.202;-77.198;2023-01-29T09:30:06;100910.22;;;28.95;9.17
50105;BME280;47690;39.202;-77.198;2023-01-29T09:32:36;100910.97;;;28.53;9.72
50105;BME280;47690;39.202;-77.198;2023-01-29T09:35:22;100907.91;;;29.23;8.93
50105;BME280;47690;39.202;-77.198;2023-01-29T09:37:51;100911.53;;;29.01;9.05
50105;BME280;47690;39.202;-77.198;2023-01-29T09:40:26;100906.28;;;28.34;9.35
50105;BME280;47690;39.202;-77.198;2023-01-29T09:43:20;100923.63;;;27.81;10.56
50105;BME280;47690;39.202;-77.198;2023-01-29T09:46:03;100916.63;;;27.57;10.13
50105;BME280;47690;39.202;-77.198;2023-01-29T09:48:34;100906.81;;;27.35;10.32
50105;BME280;47690;39.202;-77.198;2023-01-29T09:51:12;100903.53;;;27.90;10.10
50105;BME280;47690;39.202;-77.198;2023-01-29T09:53:50;100897.78;;;27.26;10.70
50105;BME280;47690;39.202;-77.198;2023-01-29T09:56:24;100891.66;;;27.25;10.43
50105;BME280;47690;39.202;-77.198;2023-01-29T09:58:59;100891.06;;;27.33;10.47
50105;BME280;47690;39.202;-77.198;2023-01-29T10:07:33;100898.66;;;27.49;10.83
50105;BME280;47690;39.202;-77.198;2023-01-29T10:10:30;100889.91;;;27.49;10.25
50105;BME280;47690;39.202;-77.198;2023-01-29T10:13:26;100891.31;;;27.53;10.67
50105;BME280;47690;39.202;-77.198;2023-01-29T10:24:53;100845.84;;;27.36;10.62
50105;BME280;47690;39.202;-77.198;2023-01-29T10:27:31;100853.19;;;27.33;10.79
50105;BME280;47690;39.202;-77.198;2023-01-29T10:30:07;100853.06;;;27.23;10.49
50105;BME280;47690;39.202;-77.198;2023-01-29T10:32:43;100849.22;;;27.27;10.36
50105;BME280;47690;39.202;-77.198;2023-01-29T10:35:21;100852.47;;;27.31;10.76
50105;BME280;47690;39.202;-77.198;2023-01-29T10:37:53;100859.69;;;27.29;10.42
50105;BME280;47690;39.202;-77.198;2023-01-29T10:43:15;100862.13;;;27.54;10.44
50105;BME280;47690;39.202;-77.198;2023-01-29T11:00:35;100821.72;;;27.64;10.44
50105;BME280;47690;39.202;-77.198;2023-01-29T11:06:13;100815.13;;;27.58;10.06
50105;BME280;47690;39.202;-77.198;2023-01-29T11:11:56;100834.25;;;27.73;10.78
50105;BME280;47690;39.202;-77.198;2023-01-29T11:14:42;100837.72;;;27.74;10.43
50105;BME280;47690;39.202;-77.198;2023-01-29T11:17:20;100825.47;;;27.84;10.10
50105;BME280;47690;39.202;-77.198;2023-01-29T11:19:52;100804.28;;;27.84;10.38
50105;BME280;47690;39.202;-77.198;2023-01-29T11:22:32;100790.69;;;27.77;10.27
50105;BME280;47690;39.202;-77.198;2023-01-29T11:25:20;100784.09;;;27.83;10.18
50105;BME280;47690;39.202;-77.198;2023-01-29T11:27:56;100770.38;;;27.78;10.51
50105;BME280;47690;39.202;-77.198;2023-01-29T11:30:36;100769.72;;;27.86;10.20
50105;BME280;47690;39.202;-77.198;2023-01-29T11:33:31;100776.22;;;27.93;10.54
50105;BME280;47690;39.202;-77.198;2023-01-29T11:36:19;100790.19;;;27.95;10.50
50105;BME280;47690;39.202;-77.198;2023-01-29T11:39:08;100801.97;;;28.02;10.74
50105;BME280;47690;39.202;-77.198;2023-01-29T11:41:56;100802.31;;;27.98;10.54
50105;BME280;47690;39.202;-77.198;2023-01-29T11:44:48;100802.47;;;27.96;10.34
50105;BME280;47690;39.202;-77.198;2023-01-29T11:47:29;100810.50;;;27.94;10.26
50105;BME280;47690;39.202;-77.198;2023-01-29T11:50:00;100812.19;;;27.95;10.00
50105;BME280;47690;39.202;-77.198;2023-01-29T11:52:37;100811.84;;;27.89;10.25
50105;BME280;47690;39.202;-77.198;2023-01-29T11:55:21;100814.25;;;27.92;10.38
50105;BME280;47690;39.202;-77.198;2023-01-29T12:00:34;100825.31;;;27.97;10.00
50105;BME280;47690;39.202;-77.198;2023-01-29T12:05:56;100838.19;;;28.02;10.92
50105;BME280;47690;39.202;-77.198;2023-01-29T12:08:39;100843.22;;;28.05;10.95
50105;BME280;47690;39.202;-77.198;2023-01-29T12:11:35;100850.19;;;28.17;10.65
50105;BME280;47690;39.202;-77.198;2023-01-29T12:17:05;100841.91;;;28.11;10.11
50105;BME280;47690;39.202;-77.198;2023-01-29T12:19:41;100845.28;;;28.24;10.00
50105;BME280;47690;39.202;-77.198;2023-01-29T12:25:37;100850.44;;;28.26;10.54
50105;BME280;47690;39.202;-77.198;2023-01-29T12:28:21;100852.72;;;28.19;10.42
50105;BME280;47690;39.202;-77.198;2023-01-29T12:34:14;100847.41;;;28.30;11.09
50105;BME280;47690;39.202;-77.198;2023-01-29T12:37:20;100842.63;;;28.24;10.58
50105;BME280;47690;39.202;-77.198;2023-01-29T12:39:51;100846.09;;;28.25;10.06
50105;BME280;47690;39.202;-77.198;2023-01-29T12:42:22;100835.75;;;28.10;10.49
50105;BME280;47690;39.202;-77.198;2023-01-29T12:45:05;100839.84;;;28.14;11.07
50105;BME280;47690;39.202;-77.198;2023-01-29T12:47:39;100844.69;;;28.20;10.27
50105;BME280;47690;39.202;-77.198;2023-01-29T12:52:54;100840.44;;;28.29;10.85
50105;BME280;47690;39.202;-77.198;2023-01-29T12:55:41;100841.81;;;28.45;10.89
50105;BME280;47690;39.202;-77.198;2023-01-29T12:58:21;100859.47;;;28.67;10.66
50105;BME280;47690;39.202;-77.198;2023-01-29T13:00:54;100866.13;;;28.61;10.44
50105;BME280;47690;39.202;-77.198;2023-01-29T13:03:31;100868.63;;;28.63;10.14
50105;BME280;47690;39.202;-77.198;2023-01-29T13:06:08;100848.09;;;28.76;10.20
50105;BME280;47690;39.202;-77.198;2023-01-29T13:08:58;100828.66;;;28.87;10.61
50105;BME280;47690;39.202;-77.198;2023-01-29T13:11:38;100823.63;;;28.84;10.64
50105;BME280;47690;39.202;-77.198;2023-01-29T13:14:18;100813.59;;;28.88;10.46
50105;BME280;47690;39.202;-77.198;2023-01-29T13:16:51;100812.13;;;28.95;10.34
50105;BME280;47690;39.202;-77.198;2023-01-29T13:19:35;100814.97;;;29.03;10.26
50105;BME280;47690;39.202;-77.198;2023-01-29T13:22:22;100799.50;;;29.09;10.17
50105;BME280;47690;39.202;-77.198;2023-01-29T13:24:55;100803.56;;;29.13;10.10
50105;BME280;47690;39.202;-77.198;2023-01-29T13:27:33;100802.16;;;29.09;10.32
50105;BME280;47690;39.202;-77.198;2023-01-29T13:30:04;100794.78;;;29.12;10.15
50105;BME280;47690;39.202;-77.198;2023-01-29T13:32:34;100792.44;;;29.19;10.57
50105;BME280;47690;39.202;-77.198;2023-01-29T13:35:11;100795.94;;;29.20;10.30
50105;BME280;47690;39.202;-77.198;2023-01-29T13:37:47;100791.91;;;29.25;10.86
50105;BME280;47690;39.202;-77.198;2023-01-29T13:40:23;100779.91;;;29.31;10.53
50105;BME280;47690;39.202;-77.198;2023-01-29T13:42:55;100775.63;;;29.40;10.48
50105;BME280;47690;39.202;-77.198;2023-01-29T13:45:41;100784.34;;;29.52;10.36
50105;BME280;47690;39.202;-77.198;2023-01-29T13:48:27;100770.75;;;29.76;10.54
50105;BME280;47690;39.202;-77.198;2023-01-29T13:51:02;100765.28;;;29.78;10.91
50105;BME280;47690;39.202;-77.198;2023-01-29T13:53:36;100765.28;;;29.78;10.68
50105;BME280;47690;39.202;-77.198;2023-01-29T13:56:29;100762.94;;;29.94;10.62
50105;BME280;47690;39.202;-77.198;2023-01-29T13:59:00;100770.91;;;29.94;10.45
50105;BME280;47690;39.202;-77.198;2023-01-29T14:04:27;100791.78;;;30.19;10.57
50105;BME280;47690;39.202;-77.198;2023-01-29T14:07:00;100794.44;;;30.29;10.46
50105;BME280;47690;39.202;-77.198;2023-01-29T14:12:03;100792.34;;;30.42;10.24
50105;BME280;47690;39.202;-77.198;2023-01-29T14:17:18;100794.59;;;30.66;10.14
50105;BME280;47690;39.202;-77.198;2023-01-29T14:19:57;100798.63;;;30.80;10.30
50105;BME280;47690;39.202;-77.198;2023-01-29T14:22:29;100807.44;;;30.91;10.19
50105;BME280;47690;39.202;-77.198;2023-01-29T14:25:04;100812.31;;;30.96;10.18
50105;BME280;47690;39.202;-77.198;2023-01-29T14:27:38;100810.47;;;31.06;10.19
50105;BME280;47690;39.202;-77.198;2023-01-29T14:30:16;100809.31;;;31.18;10.38
50105;BME280;47690;39.202;-77.198;2023-01-29T14:32:50;100802.47;;;31.26;10.16
50105;BME280;47690;39.202;-77.198;2023-01-29T14:35:23;100796.41;;;31.33;10.05
50105;BME280;47690;39.202;-77.198;2023-01-29T14:37:59;100786.25;;;31.47;10.39
50105;BME280;47690;39.202;-77.198;2023-01-29T14:40:32;100785.94;;;31.60;10.23
50105;BME280;47690;39.202;-77.198;2023-01-29T14:43:16;100786.38;;;31.83;10.22
50105;BME280;47690;39.202;-77.198;2023-01-29T14:52:42;100784.72;;;32.55;9.79
50105;BME280;47690;39.202;-77.198;2023-01-29T14:58:26;100790.91;;;32.82;9.62
50105;BME280;47690;39.202;-77.198;2023-01-29T15:01:47;100801.31;;;32.93;9.68
50105;BME280;47690;39.202;-77.198;2023-01-29T15:06:54;100802.28;;;33.10;10.19
50105;BME280;47690;39.202;-77.198;2023-01-29T15:09:51;100783.88;;;33.34;9.77
50105;BME280;47690;39.202;-77.198;2023-01-29T15:12:51;100784.50;;;33.62;9.92
50105;BME280;47690;39.202;-77.198;2023-01-29T15:21:15;100796.66;;;34.08;9.84
50105;BME280;47690;39.202;-77.198;2023-01-29T15:24:06;100797.00;;;34.13;9.96
50105;BME280;47690;39.202;-77.198;2023-01-29T15:26:36;100797.44;;;34.00;9.50
50105;BME280;47690;39.202;-77.198;2023-01-29T15:29:23;100803.50;;;34.19;9.58